Khwd ardhayy zn

Even at an ultrahigh current density of 40 mA cm −2 and capacity of 40 mAh cm −2, the cell still operates stably for 240 h, alongside a high Zn utilization with 87% depth of discharge. The in situ gel electrolyte integrating robust interface and preparation of all-in-one cells demonstrate a commercializable path for aqueous Zn-storage devices..

KHWD Available SERVICES, KHWD Website 10, this site example is reserved, it could be for you, think about it, KeefH Web Designs will work with you to create it to meet your personal or business needs,40+ years IT experience to help in your online quest,thanks for looking. It shows 4 example sites that you could haveMETAR KHWD 301954Z VRB06KT 10SM SCT050 18/07 A2962 RMK AO2 SLP041 T01830072. There is little or no wind from a variable direction. Visibility is 10 mi. No ceiling has been observed. The temperature and wind chill are 18 °C. Hayward Executive Airport KHWD · California, United States.

Did you know?

FlightAware - Flight Tracker / Flight StatusZinc hydroxide Zn ( OH) 2 is an inorganic chemical compound. It also occurs naturally as 3 rare minerals: wülfingite (orthorhombic), ashoverite and sweetite (both tetragonal). Like the hydroxides of other metals, such as lead, aluminium, beryllium, tin and chromium, Zinc hydroxide (and Zinc oxide ), is amphoteric.(KHWD) across WH. KHWD boards are used to communicate performance and improvement initiatives at a local level. The implementation of the EMR has significantly improved the delivery of Best Care to our patients. It empowers clinicians with a comprehensive and real-time overview of all relevant patient information, accessible …Hayward Executive Airport. Signature Hayward’s central location between San Francisco, San Jose and Oakland provides convenient access to a wide variety of popular destinations for both business and leisure travelers. The terminal features an elegant lobby, a full-service business center, conference room, coffee bar, kitchen and catering area.

How to convert Kuwaiti dinars to Indian rupees. 1 Input your amount. Simply type in the box how much you want to convert. 2 Choose your currencies. Click on the dropdown to select KWD in the first dropdown as the currency that you want to convert and INR in the second drop down as the currency you want to convert to.Airport Ownership and Management from official FAA records. Ownership: Publicly-owned. Owner: CITY OF HAYWARD. 777 B ST. HAYWARD, CA 94541. Phone 510-583-4310. CITY MANAGER.ICAO: KHWD IATA: HWD Airport: Hayward Executive Airport. City: Hayward State/Province: California. Country: United States Continent: North America. KHWD METAR Weather: KHWD 250454Z AUTO 27011G19KT 10SM OVC015 14/09 A2994 RMK AO2 SLP147 T01390094. KHWD ADS-B Flight Tracking (ADSBExchange)Worth it on all fronts!" -Nicki Valastro. The Delta Acting Community is a virtual place for actors to meet, collaborate, share ideas and resources, and keep our tools sharp. From private coaching to workshops to our monthly membership, we got you covered! We believe in healthy artistic lives, based on career, technique, and mindset.The Massachusetts lottery tax percentage currently stands at five percent. That is the rate you would be taxed at the state level if you won the lottery. However, you must also pay...

327 kHz. 17E (1965) 341. 47.19 nm SE. Additional HWD Navaids... GlobalAir.com receives its data from NOAA, NWS, FAA and NACO, and Weather Underground. We strive to maintain current and accurate data. However, GlobalAir.com cannot guarantee the data received from these government sources is accurate or complete.KHWD Available SERVICES, KHWD Website 10, this site example is reserved, it could be for you, think about it, KeefH Web Designs will work with you to create it to meet your personal or business needs,40+ years IT experience to help in your online quest,thanks for looking. It shows 4 example sites that you could haveMETAR KHWD 252308Z 28018G25KT 10SM SCT016 BKN026 BKN100 16/11 A3009 RMK AO2 T01610106. The wind is from direction 280° with a speed of 18 kt. Visibility is 10 mi. The ceiling, broken or more, is 2,600 ft. The temperature and wind chill are 16 °C. Hayward Executive Airport ….

Reader Q&A - also see RECOMMENDED ARTICLES & FAQs. Khwd ardhayy zn. Possible cause: Not clear khwd ardhayy zn.

Current conditions at Hayward, Hayward Air Terminal (KHWD) Lat: 37.66083°NLon: 122.11833°WElev: 46.0ft.JetPhotos.com is the biggest database of aviation photographs with over 6 million screened photos online!

Zn(II)-Embedded Nanoporous Covalent Organic Frameworks for Catalytic Conversion of CO 2 under Solvent-Free Conditions. N Haque, S Biswas, S Ghosh, AH Chowdhury, A …We would like to show you a description here but the site won't allow us.

pred 526 Hayward Ground. Tower. 120.20 MHz. Hayward Tower. Warning: Do not use this data for real-world aviation or navigation. No guarantee of current accuracy is given. Airport information for Hayward Executive (KHWD) in , including runways, map, navaids, weather (METAR/TAF) and ATC frequencies. For flight simulation use only. fylm swprhywansprzedaz i handel The possible factors that cause the pH increase include an irreversible H + de-intercalation reaction and MnOOH disproportionation reaction in the cathode, hydrogen evolution reaction and corrosion, side reactions of the Zn anode and a backward hydrolysis reaction due to Zn 2+ /Mn 2+ consumption after cycles . The appearance of ZHS can work as ...ヘイワードエグゼクティブ空港 - 天気、出発、到着ボード、飛行中のフライト。空港に関する完全な情報。 san pedro fish market long beach photos KHWD Available SERVICES, KHWD Website 10, this site example is reserved, it could be for you, think about it, KeefH Web Designs will work with you to create it to meet your personal or business needs,40+ years IT experience to help in your online quest,thanks for looking. It shows 4 example sites that you could have sks ywgapull ups 6t 7topercent27reillypercent27s in chesnee KHWD 260854Z AUTO 26011KT 10SM OVC016 14/11 A3005 RMK AO2 SLP186 T01440106 58009 Services; Frequencies & Documents Freqs & Docs; TAF; NOTAM; Operations; Runways; Remarks; List Your Business KHWD FBOs, Flight Schools and Ground Support. Promote Listing sksy alaraq METAR KHWD 230754Z AUTO 21007KT 10SM CLR 14/08 A2988 RMK AO2 SLP128 T01440083 402440133. The wind is from direction 210° with a speed of 7 kt. Visibility is 10 mi. No ceiling has been observed. The temperature and wind chill are 14 °C. Hayward Executive Airport KHWD · California, United States. carpet weaversksy jwmwnginsulated rain boots menpercent27s Enter the energy in kilowatt-hours (kWh), time period in hours (h), then press the Calculate button to get the result in kilowatts (kW). kWh to kW calculation kWh: Hours: Calculate kW: 0 P(kW) = E(kWh) / t(h) The power P in kilowatts (kW) is equal to the energy E in kilowatt-hours (kWh), divided by the consumption time period […]ขวด โซ is on Facebook. Join Facebook to connect with ขวด โซ and others you may know. Facebook gives people the power to share and makes the world more open and connected.